createdAt,value
2019-05-09T00:02:24.317Z,64.70
2019-05-09T00:05:29.433Z,64.70
2019-05-09T00:08:34.708Z,65.00
2019-05-09T00:11:39.504Z,65.10
2019-05-09T00:14:44.627Z,65.10
2019-05-09T00:17:50.298Z,65.00
2019-05-09T00:21:04.708Z,65.20
2019-05-09T00:24:09.885Z,65.10
2019-05-09T00:27:14.942Z,65.00
2019-05-09T00:30:29.841Z,65.10
2019-05-09T00:33:36.398Z,64.80
2019-05-09T00:36:43.256Z,64.90
2019-05-09T00:39:48.269Z,64.90
2019-05-09T00:42:53.761Z,65.00
2019-05-09T00:46:17.706Z,66.00
2019-05-09T00:49:24.739Z,66.20
2019-05-09T00:52:29.757Z,65.90
2019-05-09T00:55:34.733Z,66.20
2019-05-09T00:58:39.771Z,65.80
2019-05-09T01:01:44.753Z,66.20
2019-05-09T01:04:49.463Z,66.10
2019-05-09T01:07:54.340Z,66.40
2019-05-09T01:11:09.356Z,66.60
2019-05-09T01:14:06.081Z,67.30
2019-05-09T01:17:14.383Z,66.90
2019-05-09T01:20:20.129Z,66.80
2019-05-09T01:23:25.297Z,66.20
2019-05-09T01:26:30.510Z,66.40
2019-05-09T01:29:35.491Z,66.70
2019-05-09T01:32:55.183Z,67.20
2019-05-09T01:36:00.103Z,67.20
2019-05-09T01:39:06.101Z,67.40
2019-05-09T01:42:11.031Z,67.40
2019-05-09T01:45:16.127Z,67.50
2019-05-09T01:48:23.310Z,67.60
2019-05-09T01:51:27.763Z,67.60
2019-05-09T01:54:33.632Z,67.50
2019-05-09T01:57:38.921Z,67.60
2019-05-09T02:00:44.130Z,67.90
2019-05-09T02:03:50.245Z,67.80
2019-05-09T02:06:55.252Z,68.30
2019-05-09T02:10:00.371Z,68.60
2019-05-09T02:13:05.484Z,68.80
2019-05-09T02:16:34.417Z,68.70
2019-05-09T02:19:43.811Z,68.70
2019-05-09T02:22:48.351Z,68.90
2019-05-09T02:25:53.326Z,69.10
2019-05-09T02:28:58.460Z,69.30
2019-05-09T02:32:04.588Z,69.10
2019-05-09T02:35:10.516Z,68.40
2019-05-09T02:38:15.598Z,68.20
2019-05-09T02:41:20.635Z,68.20
2019-05-09T02:44:28.752Z,67.60
2019-05-09T02:47:32.329Z,67.60
2019-05-09T02:50:38.552Z,67.60
2019-05-09T02:53:43.637Z,67.70
2019-05-09T02:56:49.479Z,68.00
2019-05-09T03:00:15.160Z,68.10
2019-05-09T03:03:28.831Z,67.70
2019-05-09T03:06:32.677Z,67.50
2019-05-09T03:09:38.839Z,67.50
2019-05-09T03:12:43.984Z,67.60
2019-05-09T03:15:50.530Z,67.90
2019-05-09T03:18:58.223Z,68.20
2019-05-09T03:22:08.715Z,68.10
2019-05-09T03:25:13.826Z,67.70
2019-05-09T03:28:30.135Z,67.70
2019-05-09T03:31:39.029Z,68.00
2019-05-09T03:34:42.313Z,68.40
2019-05-09T03:37:48.937Z,68.60
2019-05-09T03:40:53.971Z,68.90
2019-05-09T03:43:59.095Z,69.30
2019-05-09T03:47:11.031Z,70.00
2019-05-09T03:50:17.910Z,70.60
2019-05-09T03:53:23.160Z,71.40
2019-05-09T03:56:33.019Z,72.00
2019-05-09T03:59:38.224Z,72.90
2019-05-09T04:02:43.304Z,73.30
2019-05-09T04:05:56.701Z,73.70
2019-05-09T04:08:55.006Z,74.00
2019-05-09T04:12:00.336Z,74.30
2019-05-09T04:15:08.445Z,74.20
2019-05-09T04:18:13.047Z,74.70
2019-05-09T04:21:18.087Z,75.50
2019-05-09T04:24:23.733Z,76.40
2019-05-09T04:27:31.204Z,77.10
2019-05-09T04:30:37.346Z,77.30
2019-05-09T04:33:42.520Z,78.00
2019-05-09T04:36:48.334Z,78.10
2019-05-09T04:39:53.945Z,79.30
2019-05-09T04:43:10.979Z,79.80
2019-05-09T04:46:08.025Z,80.40
2019-05-09T04:49:13.572Z,80.70
2019-05-09T04:52:18.658Z,81.00
2019-05-09T04:55:27.332Z,81.50
2019-05-09T04:58:32.478Z,81.90
2019-05-09T05:02:08.740Z,82.10
2019-05-09T05:05:14.052Z,82.00
2019-05-09T05:08:19.233Z,82.50
2019-05-09T05:11:24.141Z,82.90
2019-05-09T05:14:30.978Z,82.90
2019-05-09T05:17:37.776Z,82.90
2019-05-09T05:20:43.086Z,82.40
2019-05-09T05:24:18.806Z,82.50
2019-05-09T05:27:23.828Z,82.80
2019-05-09T05:30:28.736Z,83.00
2019-05-09T05:33:45.791Z,83.30
2019-05-09T05:36:51.101Z,83.70
2019-05-09T05:39:58.231Z,83.80
2019-05-09T05:43:02.802Z,83.90
2019-05-09T05:46:29.400Z,83.90
2019-05-09T05:49:34.400Z,83.90
2019-05-09T05:52:39.532Z,84.50
2019-05-09T05:55:44.616Z,84.90
2019-05-09T05:58:50.082Z,85.00
2019-05-09T06:01:58.067Z,85.60
2019-05-09T06:05:02.105Z,86.00
2019-05-09T06:08:08.194Z,86.10
2019-05-09T06:11:13.385Z,85.60
2019-05-09T06:14:18.816Z,85.50
2019-05-09T06:17:24.125Z,85.60
2019-05-09T06:20:29.198Z,85.90
2019-05-09T06:23:34.825Z,86.00
2019-05-09T06:26:40.309Z,85.60
2019-05-09T06:29:47.557Z,85.40
2019-05-09T06:32:51.877Z,85.20
2019-05-09T06:35:58.861Z,84.50
2019-05-09T06:39:03.975Z,84.50
2019-05-09T06:42:09.408Z,83.80
2019-05-09T06:45:34.183Z,83.90
2019-05-09T06:48:39.069Z,82.80
2019-05-09T06:51:44.171Z,83.00
2019-05-09T06:54:49.380Z,83.30
2019-05-09T06:57:54.394Z,84.00
2019-05-09T07:01:07.733Z,84.10
2019-05-09T07:04:38.291Z,83.90
2019-05-09T07:07:54.263Z,84.10
2019-05-09T07:10:59.563Z,83.10
2019-05-09T07:14:04.684Z,83.60
2019-05-09T07:17:09.592Z,84.00
2019-05-09T07:20:14.762Z,84.00
2019-05-09T07:23:19.875Z,84.30
2019-05-09T07:26:30.302Z,84.20
2019-05-09T07:29:37.526Z,84.50
2019-05-09T07:32:49.064Z,84.30
2019-05-09T07:35:54.177Z,84.00
2019-05-09T07:38:59.156Z,83.80
2019-05-09T07:42:04.253Z,83.70
2019-05-09T07:45:10.099Z,83.70
2019-05-09T07:48:18.094Z,84.70
2019-05-09T07:51:23.169Z,85.40
2019-05-09T07:54:29.259Z,86.20
2019-05-09T07:57:34.435Z,84.50
2019-05-09T08:00:40.566Z,84.70
2019-05-09T08:03:45.653Z,84.40
2019-05-09T08:06:50.783Z,84.70
2019-05-09T08:09:57.889Z,84.90
2019-05-09T08:13:02.973Z,84.80
2019-05-09T08:16:14.108Z,84.60
2019-05-09T08:19:14.595Z,84.60
2019-05-09T08:22:25.360Z,84.80
2019-05-09T08:25:27.664Z,84.80
2019-05-09T08:28:32.969Z,85.30
2019-05-09T08:31:40.061Z,83.80
2019-05-09T08:34:44.720Z,83.60
2019-05-09T08:37:50.017Z,84.00
2019-05-09T08:41:09.620Z,83.00
2019-05-09T08:44:14.900Z,83.10
2019-05-09T08:47:19.945Z,83.20
2019-05-09T08:50:33.437Z,84.10
2019-05-09T08:53:38.755Z,84.60
2019-05-09T08:56:43.761Z,84.60
2019-05-09T08:59:50.830Z,83.80
2019-05-09T09:02:57.365Z,83.80
2019-05-09T09:06:02.105Z,82.20
2019-05-09T09:09:08.108Z,80.40
2019-05-09T09:12:25.829Z,80.50
2019-05-09T09:15:19.458Z,79.10
2019-05-09T09:18:24.431Z,77.50
2019-05-09T09:21:29.565Z,75.10
2019-05-09T09:24:34.494Z,75.10
2019-05-09T09:27:39.665Z,75.30
2019-05-09T09:30:44.742Z,74.40
2019-05-09T09:33:49.886Z,74.10
2019-05-09T09:36:54.865Z,73.70
2019-05-09T09:39:59.909Z,72.60
2019-05-09T09:43:05.011Z,72.30
2019-05-09T09:46:14.441Z,72.30
2019-05-09T09:49:18.095Z,71.00
2019-05-09T09:52:23.086Z,71.40
2019-05-09T09:55:28.263Z,68.80
2019-05-09T09:58:33.358Z,69.10
2019-05-09T10:01:40.673Z,69.20
2019-05-09T10:04:46.965Z,71.30
2019-05-09T10:07:52.286Z,71.90
2019-05-09T10:10:59.000Z,70.50
2019-05-09T10:14:04.582Z,70.60
2019-05-09T10:17:28.540Z,70.50
2019-05-09T10:20:40.900Z,70.70
2019-05-09T10:23:48.141Z,70.00
2019-05-09T10:27:09.746Z,69.20
2019-05-09T10:30:14.862Z,69.80
2019-05-09T10:33:19.911Z,71.10
2019-05-09T10:36:25.089Z,70.70
2019-05-09T10:39:30.007Z,70.00
2019-05-09T10:42:51.963Z,71.00
2019-05-09T10:46:19.106Z,72.40
2019-05-09T10:49:22.200Z,73.30
2019-05-09T10:52:28.334Z,73.80
2019-05-09T10:55:33.433Z,73.60
2019-05-09T10:58:38.496Z,73.20
2019-05-09T11:01:43.524Z,73.00
2019-05-09T11:04:49.109Z,74.20
2019-05-09T11:07:54.437Z,74.00
2019-05-09T11:10:59.461Z,74.10
2019-05-09T11:14:04.509Z,75.00
2019-05-09T11:17:18.458Z,73.50
2019-05-09T11:20:19.500Z,73.70
2019-05-09T11:23:24.757Z,74.60
2019-05-09T11:26:29.847Z,73.90
2019-05-09T11:29:34.780Z,73.90
2019-05-09T11:32:39.864Z,74.90
2019-05-09T11:35:47.817Z,74.00
2019-05-09T11:38:51.746Z,73.80
2019-05-09T11:41:58.585Z,74.70
2019-05-09T11:45:03.760Z,74.70
2019-05-09T11:48:08.843Z,73.10
2019-05-09T11:51:13.836Z,71.70
2019-05-09T11:54:19.500Z,72.30
2019-05-09T11:57:27.653Z,73.70
2019-05-09T12:00:31.425Z,74.00
2019-05-09T12:03:38.657Z,75.30
2019-05-09T12:06:43.562Z,75.90
2019-05-09T12:09:49.005Z,78.00
2019-05-09T12:12:54.017Z,76.60
2019-05-09T12:15:59.237Z,77.80
2019-05-09T12:19:04.386Z,81.60
2019-05-09T12:22:09.678Z,84.00
2019-05-09T12:25:14.676Z,84.10
2019-05-09T12:28:19.664Z,84.20
2019-05-09T12:31:24.829Z,84.40
2019-05-09T12:34:29.848Z,85.10
2019-05-09T12:37:34.930Z,85.80
2019-05-09T12:40:40.103Z,85.80
2019-05-09T12:43:45.207Z,86.10
2019-05-09T12:46:50.221Z,86.60
2019-05-09T12:49:58.077Z,86.60
2019-05-09T12:53:02.052Z,86.00
2019-05-09T12:56:08.113Z,84.80
2019-05-09T12:59:13.244Z,85.20
2019-05-09T13:02:18.281Z,86.10
2019-05-09T13:05:23.274Z,87.00
2019-05-09T13:08:28.370Z,86.80
2019-05-09T13:11:33.390Z,82.90
2019-05-09T13:14:38.484Z,83.50
2019-05-09T13:17:45.197Z,83.60
2019-05-09T13:20:50.404Z,81.70
2019-05-09T13:23:58.565Z,79.50
2019-05-09T13:27:02.336Z,79.70
2019-05-09T13:30:08.489Z,79.50
2019-05-09T13:33:13.490Z,80.00
2019-05-09T13:36:19.006Z,80.10
2019-05-09T13:39:24.334Z,79.50
2019-05-09T13:42:29.481Z,79.30
2019-05-09T13:45:34.385Z,80.30
2019-05-09T13:49:04.507Z,78.50
2019-05-09T13:51:54.734Z,78.50
2019-05-09T13:54:53.039Z,80.00
2019-05-09T13:57:59.380Z,79.10
2019-05-09T14:01:07.178Z,79.40
2019-05-09T14:04:11.946Z,80.50
2019-05-09T14:07:19.062Z,80.80
2019-05-09T14:10:23.631Z,80.90
2019-05-09T14:13:28.766Z,80.00
2019-05-09T14:16:34.012Z,80.10
2019-05-09T14:19:45.669Z,79.20
2019-05-09T14:22:48.849Z,78.00
2019-05-09T14:25:52.857Z,78.90
2019-05-09T14:28:58.383Z,79.50
2019-05-09T14:32:05.290Z,78.90
2019-05-09T14:35:10.663Z,78.30
2019-05-09T14:38:18.285Z,77.00
2019-05-09T14:41:22.512Z,76.70
2019-05-09T14:44:27.865Z,77.30
2019-05-09T14:47:32.638Z,77.40
2019-05-09T14:50:38.167Z,78.00
2019-05-09T14:53:44.537Z,79.30
2019-05-09T14:56:49.755Z,79.90
2019-05-09T14:59:54.764Z,78.50
2019-05-09T15:03:00.858Z,77.20
2019-05-09T15:06:07.512Z,76.80
2019-05-09T15:09:12.612Z,75.80
2019-05-09T15:12:19.134Z,75.70
2019-05-09T15:15:24.313Z,76.60
2019-05-09T15:18:29.302Z,76.30
2019-05-09T15:21:34.276Z,77.60
2019-05-09T15:24:39.548Z,74.90
2019-05-09T15:27:44.766Z,74.10
2019-05-09T15:30:49.627Z,74.10
2019-05-09T15:33:54.625Z,74.40
2019-05-09T15:36:59.763Z,74.00
2019-05-09T15:40:04.933Z,74.30
2019-05-09T15:43:10.157Z,74.60
2019-05-09T15:46:28.915Z,75.00
2019-05-09T15:49:34.414Z,74.50
2019-05-09T15:52:39.545Z,74.50
2019-05-09T15:55:44.576Z,74.20
2019-05-09T15:58:49.636Z,75.00
2019-05-09T16:01:58.344Z,74.50
2019-05-09T16:05:03.468Z,73.40
2019-05-09T16:08:11.276Z,72.70
2019-05-09T16:11:17.812Z,71.10
2019-05-09T16:14:22.095Z,70.80
2019-05-09T16:17:28.568Z,70.10
2019-05-09T16:20:37.490Z,69.80
2019-05-09T16:23:40.364Z,69.80
2019-05-09T16:26:45.446Z,69.70
2019-05-09T16:29:50.626Z,72.50
2019-05-09T16:32:55.613Z,72.50
2019-05-09T16:36:00.891Z,72.80
2019-05-09T16:39:07.749Z,71.70
2019-05-09T16:42:12.786Z,72.50
2019-05-09T16:45:18.458Z,72.90
2019-05-09T16:48:23.882Z,73.50
2019-05-09T16:51:29.006Z,73.40
2019-05-09T16:54:38.746Z,73.80
2019-05-09T16:57:44.298Z,73.90
2019-05-09T17:00:52.240Z,72.70
2019-05-09T17:03:57.628Z,73.20
2019-05-09T17:07:02.842Z,74.30
2019-05-09T17:10:08.434Z,75.40
2019-05-09T17:13:14.466Z,75.00
2019-05-09T17:16:20.362Z,75.30
2019-05-09T17:19:25.979Z,75.10
2019-05-09T17:22:49.761Z,75.40
2019-05-09T17:25:57.755Z,76.00
2019-05-09T17:29:01.947Z,76.10
2019-05-09T17:32:07.732Z,76.50
2019-05-09T17:35:12.990Z,77.30
2019-05-09T17:38:18.298Z,77.80
2019-05-09T17:41:23.379Z,77.40
2019-05-09T17:44:28.534Z,77.40
2019-05-09T17:47:33.652Z,77.50
2019-05-09T17:50:38.793Z,77.00
2019-05-09T17:53:51.473Z,77.30
2019-05-09T17:56:52.824Z,77.40
2019-05-09T17:59:58.620Z,77.30
2019-05-09T18:03:03.722Z,77.30
2019-05-09T18:06:08.834Z,76.70
2019-05-09T18:09:14.347Z,76.20
2019-05-09T18:12:20.162Z,75.70
2019-05-09T18:15:25.425Z,76.30
2019-05-09T18:18:30.820Z,77.10
2019-05-09T18:21:48.016Z,77.40
2019-05-09T18:24:42.832Z,77.80
2019-05-09T18:27:48.849Z,78.30
2019-05-09T18:30:54.187Z,78.90
2019-05-09T18:34:03.058Z,79.40
2019-05-09T18:37:08.355Z,79.60
2019-05-09T18:40:13.950Z,80.20
2019-05-09T18:43:20.897Z,80.90
2019-05-09T18:46:27.910Z,81.70
2019-05-09T18:49:32.642Z,82.30
2019-05-09T18:52:38.205Z,82.80
2019-05-09T18:55:43.370Z,83.20
2019-05-09T18:58:48.832Z,83.50
2019-05-09T19:01:53.985Z,83.90
2019-05-09T19:04:59.132Z,84.10
2019-05-09T19:08:04.254Z,84.30
2019-05-09T19:11:09.357Z,84.70
2019-05-09T19:14:16.144Z,85.00
2019-05-09T19:17:38.679Z,85.50
2019-05-09T19:20:51.459Z,87.00
2019-05-09T19:23:56.617Z,86.60
2019-05-09T19:27:01.839Z,87.00
2019-05-09T19:30:07.657Z,87.20
2019-05-09T19:33:12.587Z,87.30
2019-05-09T19:36:18.781Z,87.40
2019-05-09T19:39:23.965Z,87.80
2019-05-09T19:42:28.987Z,88.00
2019-05-09T19:45:34.224Z,88.10
2019-05-09T19:48:39.394Z,88.20
2019-05-09T19:51:44.449Z,88.50
2019-05-09T19:54:49.377Z,88.80
2019-05-09T19:57:54.795Z,89.20
2019-05-09T20:00:59.943Z,89.60
2019-05-09T20:04:05.016Z,89.60
2019-05-09T20:07:10.001Z,89.60
2019-05-09T20:10:32.737Z,89.60
2019-05-09T20:13:56.936Z,90.00
2019-05-09T20:17:02.072Z,90.00
2019-05-09T20:20:07.963Z,90.10
2019-05-09T20:23:12.977Z,90.10
2019-05-09T20:26:18.233Z,90.00
2019-05-09T20:29:23.450Z,90.00
2019-05-09T20:32:28.509Z,90.20
2019-05-09T20:35:33.826Z,90.10
2019-05-09T20:38:39.214Z,90.10
2019-05-09T20:41:44.502Z,90.20
2019-05-09T20:44:49.730Z,90.20
2019-05-09T20:47:54.960Z,90.10
2019-05-09T20:51:00.338Z,90.10
2019-05-09T20:54:20.020Z,90.00
2019-05-09T20:57:12.523Z,90.10
2019-05-09T21:00:18.110Z,90.10
2019-05-09T21:03:23.585Z,90.20
2019-05-09T21:06:29.095Z,90.10
2019-05-09T21:09:34.436Z,90.10
2019-05-09T21:12:39.770Z,90.30
2019-05-09T21:15:46.854Z,90.40
2019-05-09T21:18:52.155Z,90.30
2019-05-09T21:21:57.850Z,90.30
2019-05-09T21:25:03.201Z,90.10
2019-05-09T21:28:08.358Z,90.00
2019-05-09T21:31:13.612Z,90.00
2019-05-09T21:34:18.969Z,90.00
2019-05-09T21:37:23.930Z,89.80
2019-05-09T21:40:29.039Z,89.90
2019-05-09T21:43:33.955Z,90.00
2019-05-09T21:46:39.155Z,90.20
2019-05-09T21:49:44.395Z,90.20
2019-05-09T21:52:49.546Z,90.00
2019-05-09T21:55:55.041Z,90.20
2019-05-09T21:59:00.313Z,90.30
2019-05-09T22:02:07.327Z,90.50
2019-05-09T22:05:12.279Z,90.50
2019-05-09T22:08:17.491Z,90.80
2019-05-09T22:11:22.618Z,90.40
2019-05-09T22:14:27.695Z,90.40
2019-05-09T22:17:39.931Z,90.60
2019-05-09T22:20:45.002Z,90.60
2019-05-09T22:23:56.337Z,90.70
2019-05-09T22:26:56.576Z,90.50
2019-05-09T22:30:01.713Z,90.50
2019-05-09T22:33:08.657Z,90.40
2019-05-09T22:36:14.001Z,90.40
2019-05-09T22:39:19.463Z,90.50
2019-05-09T22:42:24.569Z,90.60
2019-05-09T22:45:29.611Z,90.70
2019-05-09T22:48:34.765Z,90.70
2019-05-09T22:51:39.619Z,90.80
2019-05-09T22:54:44.897Z,90.60
2019-05-09T22:57:49.849Z,90.60
2019-05-09T23:00:54.866Z,90.70
2019-05-09T23:04:00.366Z,90.60
2019-05-09T23:07:05.602Z,90.60
2019-05-09T23:10:10.625Z,90.40
2019-05-09T23:13:15.746Z,90.20
2019-05-09T23:16:24.533Z,90.10
2019-05-09T23:19:29.749Z,90.20
2019-05-09T23:22:46.753Z,90.00
2019-05-09T23:25:51.795Z,90.00
2019-05-09T23:28:56.754Z,90.00
2019-05-09T23:32:09.572Z,90.80
2019-05-09T23:35:14.657Z,91.00
2019-05-09T23:38:19.801Z,91.10
2019-05-09T23:41:24.774Z,91.10
2019-05-09T23:44:29.760Z,91.30
2019-05-09T23:47:34.843Z,91.30
2019-05-09T23:50:39.908Z,91.30
2019-05-09T23:53:52.476Z,91.40
2019-05-09T23:57:15.348Z,91.30
